Wendell, Minnesota
Current Conditions -  °F | °C
As of 4:35 PM on Friday 24 Oct 2014 (Local Time) from KY63 Reporting Station
Clear Clear  
Wind Chill: 72°   Ceiling: Unl
Heat Index: 72°   Visibility: 10mi
Dew Point: 42°   Wind: 9mph
Humidity: 33%   Direction: 280°W
Pressure: 29.82"   Gusts: NA
Location:  46.04°N, 96.1°W
Report Text: KY63 242135Z AUTO 28008KT 10SM CLR 22/06 A2982 RMK AO2 T02240055
Loading
Personal Weather Stations






























Interactive Weather Map
Tropical Storm Tracking
New forecast layout! Learn more

10-Day Weather Forecast

Advertisements
Track Severe Weather on mobile